Elgin, Ohio
Current Conditions -  °F | °C
As of 6:13 PM on Sunday 21 Dec 2014 (Local Time) from KAXV Reporting Station
Clear Clear  
Wind Chill: 32°   Ceiling: Unl
Heat Index: 32°   Visibility: 10mi
Dew Point: 27°   Wind: 3mph
Humidity: 80%   Direction: 100°E
Pressure: 30.19"   Gusts: NA
Location:  40.74°N, 84.48°W
Report Text: KAXV 212313Z AUTO 10003KT 10SM CLR 00/M03 A3019 RMK AO2
Loading
Personal Weather Stations






























Interactive Weather Map New forecast layout! Learn more

10-Day Weather Forecast

Advertisements
Track Severe Weather on mobile